createdAt,value
2023-01-10T00:02:07.306Z,10.17
2023-01-10T00:04:34.974Z,14.53
2023-01-10T00:07:02.610Z,15.43
2023-01-10T00:09:31.665Z,9.00
2023-01-10T00:12:16.843Z,11.30
2023-01-10T00:14:44.501Z,7.57
2023-01-10T00:17:12.167Z,7.63
2023-01-10T00:19:39.819Z,9.77
2023-01-10T00:22:16.814Z,12.07
2023-01-10T00:24:45.707Z,10.27
2023-01-10T00:27:17.037Z,10.57
2023-01-10T00:29:44.757Z,8.50
2023-01-10T00:32:12.381Z,10.03
2023-01-10T00:34:39.962Z,9.20
2023-01-10T00:37:07.618Z,11.17
2023-01-10T00:39:35.193Z,8.30
2023-01-10T00:42:22.480Z,11.30
2023-01-10T00:44:50.104Z,13.23
2023-01-10T00:47:18.677Z,8.00
2023-01-10T00:49:46.740Z,6.93
2023-01-10T00:52:14.352Z,9.43
2023-01-10T00:54:41.911Z,5.73
2023-01-10T00:57:10.985Z,10.93
2023-01-10T00:59:38.555Z,8.90
2023-01-10T01:02:06.281Z,10.40
2023-01-10T01:04:35.153Z,10.77
2023-01-10T01:07:02.873Z,10.07
2023-01-10T01:09:30.708Z,13.10
2023-01-10T01:14:41.086Z,10.30
2023-01-10T01:17:08.779Z,9.63
2023-01-10T01:19:36.590Z,8.97
2023-01-10T01:22:04.160Z,7.10
2023-01-10T01:24:31.887Z,9.47
2023-01-10T01:26:59.461Z,8.97
2023-01-10T01:29:35.255Z,5.77
2023-01-10T01:32:12.023Z,10.73
2023-01-10T01:34:39.718Z,10.07
2023-01-10T01:37:07.516Z,5.33
2023-01-10T01:39:35.087Z,9.13
2023-01-10T01:42:02.976Z,11.77
2023-01-10T01:44:31.454Z,8.67
2023-01-10T01:47:02.956Z,16.20
2023-01-10T01:49:31.952Z,8.13
2023-01-10T01:52:01.742Z,9.30
2023-01-10T01:54:29.292Z,9.50
2023-01-10T01:56:59.385Z,9.27
2023-01-10T01:59:28.421Z,5.57
2023-01-10T02:01:58.408Z,8.80
2023-01-10T02:04:28.285Z,8.20
2023-01-10T02:06:57.329Z,7.97
2023-01-10T02:09:26.015Z,9.50
2023-01-10T02:11:53.711Z,11.97
2023-01-10T02:14:21.453Z,11.43
2023-01-10T02:16:49.164Z,6.20
2023-01-10T02:19:21.161Z,7.40
2023-01-10T02:22:19.421Z,10.37
2023-01-10T02:25:19.580Z,7.60
2023-01-10T02:27:55.670Z,8.07
2023-01-10T02:30:48.380Z,8.57
2023-01-10T02:33:20.480Z,6.47
2023-01-10T02:36:05.174Z,6.90
2023-01-10T02:38:40.231Z,5.57
2023-01-10T02:41:19.740Z,9.70
2023-01-10T02:43:48.997Z,7.53
2023-01-10T02:46:17.910Z,8.57
2023-01-10T02:48:47.073Z,8.67
2023-01-10T02:51:18.283Z,5.37
2023-01-10T02:53:47.127Z,6.50
2023-01-10T02:56:38.353Z,9.73
2023-01-10T02:59:27.993Z,9.37
2023-01-10T03:01:57.874Z,8.93
2023-01-10T03:04:31.703Z,7.93
2023-01-10T03:07:00.963Z,10.13
2023-01-10T03:09:33.555Z,8.70
2023-01-10T03:12:03.850Z,5.83
2023-01-10T03:14:31.420Z,10.37
2023-01-10T03:17:00.099Z,8.90
2023-01-10T03:19:30.713Z,13.07
2023-01-10T03:22:00.340Z,13.37
2023-01-10T03:24:29.844Z,9.67
2023-01-10T03:26:59.990Z,8.80
2023-01-10T03:29:30.647Z,9.73
2023-01-10T03:32:00.715Z,8.97
2023-01-10T03:34:29.868Z,9.80
2023-01-10T03:37:04.525Z,8.27
2023-01-10T03:39:34.012Z,8.67
2023-01-10T03:42:06.847Z,8.70
2023-01-10T03:44:46.486Z,7.70
2023-01-10T03:47:20.288Z,8.73
2023-01-10T03:49:50.434Z,6.97
2023-01-10T03:52:18.827Z,8.10
2023-01-10T03:54:46.441Z,6.83
2023-01-10T03:57:18.835Z,14.70
2023-01-10T03:59:46.543Z,6.00
2023-01-10T04:02:14.264Z,11.07
2023-01-10T04:04:41.857Z,11.20
2023-01-10T04:07:10.804Z,10.37
2023-01-10T04:09:38.355Z,8.87
2023-01-10T04:12:06.630Z,8.53
2023-01-10T04:14:34.416Z,6.10
2023-01-10T04:17:01.974Z,5.43
2023-01-10T04:19:32.386Z,8.47
2023-01-10T04:22:01.774Z,5.37
2023-01-10T04:24:30.896Z,6.03
2023-01-10T04:26:58.608Z,12.87
2023-01-10T04:29:27.063Z,8.40
2023-01-10T04:31:54.680Z,9.57
2023-01-10T04:34:22.458Z,7.57
2023-01-10T04:36:54.139Z,8.67
2023-01-10T04:39:22.144Z,10.73
2023-01-10T04:41:51.277Z,13.00
2023-01-10T04:44:18.844Z,11.57
2023-01-10T04:46:46.576Z,7.37
2023-01-10T04:49:14.370Z,6.57
2023-01-10T04:51:42.085Z,10.73
2023-01-10T04:54:09.663Z,9.37
2023-01-10T04:56:37.617Z,10.80
2023-01-10T04:59:07.412Z,8.07
2023-01-10T05:01:38.884Z,10.03
2023-01-10T05:04:06.910Z,8.17
2023-01-10T05:06:34.481Z,10.67
2023-01-10T05:09:02.185Z,8.43
2023-01-10T05:11:29.830Z,10.50
2023-01-10T05:13:57.382Z,10.40
2023-01-10T05:16:26.502Z,17.10
2023-01-10T05:18:54.059Z,7.83
2023-01-10T05:21:21.744Z,10.90
2023-01-10T05:23:49.305Z,6.90
2023-01-10T05:26:17.655Z,10.93
2023-01-10T05:28:45.502Z,9.43
2023-01-10T05:31:14.429Z,9.30
2023-01-10T05:33:46.564Z,11.40
2023-01-10T05:36:14.144Z,9.53
2023-01-10T05:38:42.005Z,9.50
2023-01-10T05:41:09.605Z,11.23
2023-01-10T05:43:37.397Z,12.23
2023-01-10T05:46:05.318Z,5.60
2023-01-10T05:48:33.123Z,13.33
2023-01-10T05:51:02.159Z,8.73
2023-01-10T05:53:29.978Z,9.27
2023-01-10T05:56:00.028Z,16.03
2023-01-10T05:58:27.967Z,9.47
2023-01-10T06:00:56.087Z,11.03
2023-01-10T06:03:24.975Z,11.00
2023-01-10T06:05:52.559Z,14.80
2023-01-10T06:08:25.137Z,17.17
2023-01-10T06:10:52.927Z,7.97
2023-01-10T06:13:20.553Z,11.37
2023-01-10T06:15:48.378Z,9.43
2023-01-10T06:18:16.068Z,11.97
2023-01-10T06:20:43.915Z,9.37
2023-01-10T06:23:11.506Z,13.40
2023-01-10T06:25:41.658Z,12.90
2023-01-10T06:28:09.405Z,12.20
2023-01-10T06:30:37.316Z,12.90
2023-01-10T06:33:05.824Z,11.07
2023-01-10T06:35:33.787Z,9.90
2023-01-10T06:38:01.509Z,12.27
2023-01-10T06:40:29.619Z,13.83
2023-01-10T06:42:59.159Z,10.33
2023-01-10T06:45:27.093Z,11.03
2023-01-10T06:47:54.679Z,13.00
2023-01-10T06:50:22.536Z,12.53
2023-01-10T06:52:56.292Z,17.33
2023-01-10T06:55:24.268Z,6.93
2023-01-10T06:57:56.413Z,9.37
2023-01-10T07:00:25.846Z,17.53
2023-01-10T07:02:54.234Z,11.17
2023-01-10T07:05:21.791Z,8.37
2023-01-10T07:07:49.514Z,15.80
2023-01-10T07:10:17.922Z,12.27
2023-01-10T07:15:19.789Z,15.60
2023-01-10T07:17:48.809Z,10.53
2023-01-10T07:20:16.536Z,11.63
2023-01-10T07:22:45.228Z,16.97
2023-01-10T07:25:12.857Z,11.93
2023-01-10T07:27:43.246Z,15.97
2023-01-10T07:30:12.170Z,17.50
2023-01-10T07:32:39.907Z,18.57
2023-01-10T07:35:09.814Z,14.90
2023-01-10T07:37:37.405Z,11.60
2023-01-10T07:40:05.717Z,10.73
2023-01-10T07:42:33.318Z,16.37
2023-01-10T07:45:00.900Z,18.60
2023-01-10T07:47:29.019Z,16.30
2023-01-10T07:49:56.671Z,15.87
2023-01-10T07:52:25.721Z,17.93
2023-01-10T07:54:53.674Z,12.80
2023-01-10T07:57:21.251Z,15.17
2023-01-10T07:59:49.151Z,16.27
2023-01-10T08:02:16.754Z,17.37
2023-01-10T08:04:44.381Z,12.00
2023-01-10T08:07:11.941Z,14.37
2023-01-10T08:09:40.977Z,13.03
2023-01-10T08:12:08.661Z,11.77
2023-01-10T08:14:36.319Z,16.10
2023-01-10T08:17:07.006Z,16.00
2023-01-10T08:19:34.670Z,15.67
2023-01-10T08:22:03.077Z,14.57
2023-01-10T08:24:30.853Z,17.83
2023-01-10T08:27:00.449Z,15.77
2023-01-10T08:29:28.049Z,15.93
2023-01-10T08:31:55.905Z,14.80
2023-01-10T08:34:23.599Z,19.30
2023-01-10T08:36:51.547Z,15.53
2023-01-10T08:39:20.436Z,18.10
2023-01-10T08:41:49.080Z,22.80
2023-01-10T08:44:18.006Z,15.83
2023-01-10T08:46:45.832Z,13.90
2023-01-10T08:49:13.453Z,16.47
2023-01-10T08:51:42.715Z,15.13
2023-01-10T08:54:10.436Z,16.60
2023-01-10T08:56:40.039Z,18.53
2023-01-10T08:59:07.937Z,15.77
2023-01-10T09:01:37.032Z,15.13
2023-01-10T09:04:05.335Z,16.07
2023-01-10T09:06:32.971Z,15.13
2023-01-10T09:09:00.605Z,16.73
2023-01-10T09:11:29.400Z,12.70
2023-01-10T09:13:57.058Z,16.87
2023-01-10T09:16:24.844Z,15.37
2023-01-10T09:18:56.302Z,11.13
2023-01-10T09:21:23.931Z,14.93
2023-01-10T09:23:51.609Z,16.03
2023-01-10T09:26:19.236Z,13.73
2023-01-10T09:28:48.815Z,13.70
2023-01-10T09:31:16.557Z,19.80
2023-01-10T09:33:47.761Z,18.83
2023-01-10T09:36:16.886Z,20.83
2023-01-10T09:38:44.733Z,16.37
2023-01-10T09:41:34.755Z,16.10
2023-01-10T09:44:05.785Z,12.23
2023-01-10T09:46:39.259Z,15.13
2023-01-10T09:49:11.297Z,14.33
2023-01-10T09:51:41.891Z,16.43
2023-01-10T09:54:13.069Z,16.70
2023-01-10T09:56:41.386Z,18.57
2023-01-10T09:59:14.761Z,22.30
2023-01-10T10:01:42.548Z,14.90
2023-01-10T10:04:21.299Z,15.87
2023-01-10T10:06:51.117Z,12.97
2023-01-10T10:09:22.784Z,18.53
2023-01-10T10:11:54.834Z,23.20
2023-01-10T10:14:29.496Z,11.57
2023-01-10T10:17:06.577Z,17.50
2023-01-10T10:19:38.193Z,15.90
2023-01-10T10:22:09.719Z,15.40
2023-01-10T10:24:47.795Z,14.43
2023-01-10T10:27:19.075Z,12.43
2023-01-10T10:30:20.382Z,10.80
2023-01-10T10:32:55.486Z,13.70
2023-01-10T10:35:26.853Z,16.13
2023-01-10T10:37:57.124Z,14.00
2023-01-10T10:40:25.866Z,16.47
2023-01-10T10:42:55.328Z,19.37
2023-01-10T10:45:25.560Z,16.93
2023-01-10T10:47:56.772Z,14.23
2023-01-10T10:50:26.941Z,15.43
2023-01-10T10:52:55.998Z,16.40
2023-01-10T10:55:27.186Z,15.83
2023-01-10T10:57:59.898Z,13.23
2023-01-10T11:00:28.279Z,17.77
2023-01-10T11:02:57.780Z,17.23
2023-01-10T11:05:30.624Z,14.00
2023-01-10T11:08:01.778Z,22.30
2023-01-10T11:10:39.019Z,11.40
2023-01-10T11:13:15.783Z,18.10
2023-01-10T11:15:44.443Z,19.17
2023-01-10T11:18:13.501Z,22.23
2023-01-10T11:20:48.621Z,17.30
2023-01-10T11:23:25.159Z,14.93
2023-01-10T11:25:52.753Z,15.90
2023-01-10T11:28:23.054Z,16.17
2023-01-10T11:30:50.679Z,14.67
2023-01-10T11:33:20.940Z,14.43
2023-01-10T11:35:57.936Z,13.13
2023-01-10T11:38:30.027Z,11.70
2023-01-10T11:40:59.650Z,10.83
2023-01-10T11:43:29.739Z,14.00
2023-01-10T11:45:58.219Z,13.23
2023-01-10T11:48:53.215Z,14.33
2023-01-10T11:51:18.749Z,13.13
2023-01-10T11:53:48.819Z,12.60
2023-01-10T11:56:24.460Z,15.70
2023-01-10T11:58:52.044Z,12.73
2023-01-10T12:01:27.518Z,18.80
2023-01-10T12:03:55.163Z,11.30
2023-01-10T12:06:22.830Z,10.43
2023-01-10T12:08:55.968Z,15.17
2023-01-10T12:11:27.241Z,11.87
2023-01-10T12:13:55.459Z,16.20
2023-01-10T12:16:24.551Z,10.83
2023-01-10T12:18:52.790Z,18.23
2023-01-10T12:21:23.240Z,11.57
2023-01-10T12:23:52.182Z,10.17
2023-01-10T12:26:19.823Z,12.43
2023-01-10T12:28:50.985Z,13.33
2023-01-10T12:31:19.268Z,13.60
2023-01-10T12:33:48.023Z,13.57
2023-01-10T12:36:20.866Z,8.67
2023-01-10T12:39:05.944Z,10.37
2023-01-10T12:41:57.598Z,14.20
2023-01-10T12:44:27.619Z,9.37
2023-01-10T12:47:06.908Z,10.17
2023-01-10T12:49:37.042Z,15.50
2023-01-10T12:52:07.256Z,11.90
2023-01-10T12:54:34.834Z,15.80
2023-01-10T12:57:06.458Z,7.73
2023-01-10T12:59:38.254Z,6.27
2023-01-10T13:02:07.277Z,6.57
2023-01-10T13:04:35.996Z,8.80
2023-01-10T13:07:03.663Z,12.20
2023-01-10T13:09:31.524Z,7.33
2023-01-10T13:14:30.833Z,9.10
2023-01-10T13:17:03.804Z,11.47
2023-01-10T13:19:31.804Z,12.07
2023-01-10T13:22:29.611Z,9.13
2023-01-10T13:24:58.628Z,7.43
2023-01-10T13:27:27.651Z,6.73
2023-01-10T13:29:56.866Z,8.07
2023-01-10T13:32:25.647Z,12.03
2023-01-10T13:34:53.479Z,14.20
2023-01-10T13:37:23.833Z,9.73
2023-01-10T13:39:52.990Z,9.43
2023-01-10T13:42:44.584Z,8.60
2023-01-10T13:45:38.432Z,7.57
2023-01-10T13:48:21.936Z,7.03
2023-01-10T13:50:51.352Z,10.10
2023-01-10T13:53:52.204Z,11.90
2023-01-10T13:56:33.769Z,9.60
2023-01-10T13:59:19.358Z,10.57
2023-01-10T14:02:10.437Z,6.73
2023-01-10T14:04:39.702Z,7.17
2023-01-10T14:07:08.315Z,6.77
2023-01-10T14:09:45.353Z,10.17
2023-01-10T14:12:24.928Z,8.43
2023-01-10T14:14:55.545Z,8.60
2023-01-10T14:17:26.259Z,9.53
2023-01-10T14:20:20.166Z,8.23
2023-01-10T14:22:58.831Z,11.20
2023-01-10T14:25:26.804Z,5.83
2023-01-10T14:27:54.499Z,9.63
2023-01-10T14:30:23.110Z,9.80
2023-01-10T14:32:52.695Z,9.90
2023-01-10T14:35:24.789Z,6.00
2023-01-10T14:37:54.112Z,7.80
2023-01-10T14:40:28.026Z,9.23
2023-01-10T14:42:58.397Z,10.40
2023-01-10T14:45:31.675Z,11.23
2023-01-10T14:48:00.602Z,8.70
2023-01-10T14:50:30.452Z,10.67
2023-01-10T14:52:58.059Z,7.03
2023-01-10T14:55:25.636Z,9.73
2023-01-10T14:57:57.024Z,6.13
2023-01-10T15:00:29.044Z,9.73
2023-01-10T15:02:57.586Z,6.87
2023-01-10T15:05:26.982Z,6.83
2023-01-10T15:07:56.933Z,9.40
2023-01-10T15:10:25.716Z,9.47
2023-01-10T15:12:53.969Z,8.43
2023-01-10T15:15:24.650Z,9.20
2023-01-10T15:17:52.219Z,12.20
2023-01-10T15:20:20.287Z,11.93
2023-01-10T15:22:50.757Z,4.87
2023-01-10T15:25:30.303Z,9.57
2023-01-10T15:27:58.497Z,13.80
2023-01-10T15:30:26.889Z,6.73
2023-01-10T15:32:55.010Z,6.40
2023-01-10T15:35:27.425Z,9.50
2023-01-10T15:38:05.252Z,8.70
2023-01-10T15:40:34.101Z,10.27
2023-01-10T15:43:12.377Z,7.60
2023-01-10T15:45:40.077Z,8.57
2023-01-10T15:48:27.776Z,9.17
2023-01-10T15:50:55.889Z,10.63
2023-01-10T15:53:40.038Z,9.90
2023-01-10T15:56:10.525Z,9.63
2023-01-10T15:58:38.170Z,9.53
2023-01-10T16:01:06.093Z,11.03
2023-01-10T16:03:35.584Z,7.77
2023-01-10T16:06:04.787Z,5.80
2023-01-10T16:08:35.147Z,6.20
2023-01-10T16:11:04.328Z,9.97
2023-01-10T16:13:33.064Z,11.40
2023-01-10T16:16:03.108Z,10.50
2023-01-10T16:18:30.701Z,9.40
2023-01-10T16:20:59.403Z,9.53
2023-01-10T16:23:29.441Z,7.00
2023-01-10T16:25:59.213Z,7.47
2023-01-10T16:28:28.878Z,5.53
2023-01-10T16:30:56.520Z,5.10
2023-01-10T16:33:26.205Z,9.17
2023-01-10T16:35:54.514Z,7.57
2023-01-10T16:38:22.354Z,11.27
2023-01-10T16:40:51.145Z,9.90
2023-01-10T16:43:19.205Z,9.10
2023-01-10T16:45:46.985Z,8.97
2023-01-10T16:48:14.802Z,8.30
2023-01-10T16:50:42.690Z,14.57
2023-01-10T16:53:12.025Z,7.80
2023-01-10T16:55:42.034Z,11.73
2023-01-10T16:58:10.155Z,9.80
2023-01-10T17:00:39.396Z,7.77
2023-01-10T17:03:10.127Z,8.00
2023-01-10T17:05:38.120Z,9.33
2023-01-10T17:08:06.461Z,6.73
2023-01-10T17:10:35.121Z,12.27
2023-01-10T17:13:03.198Z,16.70
2023-01-10T17:15:31.492Z,7.97
2023-01-10T17:18:00.656Z,8.90
2023-01-10T17:20:30.624Z,9.27
2023-01-10T17:22:58.466Z,13.17
2023-01-10T17:25:26.278Z,10.93
2023-01-10T17:27:54.072Z,8.43
2023-01-10T17:30:21.958Z,16.60
2023-01-10T17:32:49.672Z,9.13
2023-01-10T17:35:18.875Z,8.57
2023-01-10T17:37:49.708Z,7.10
2023-01-10T17:40:17.611Z,5.40
2023-01-10T17:42:45.340Z,9.93
2023-01-10T17:45:13.041Z,13.70
2023-01-10T17:47:40.846Z,10.47
2023-01-10T17:50:09.073Z,9.30
2023-01-10T17:52:38.187Z,9.83
2023-01-10T17:55:07.562Z,7.27
2023-01-10T17:57:38.369Z,14.00
2023-01-10T18:00:07.195Z,10.57
2023-01-10T18:02:35.156Z,8.73
2023-01-10T18:05:02.974Z,6.53
2023-01-10T18:07:30.619Z,5.43
2023-01-10T18:10:00.217Z,8.13
2023-01-10T18:12:27.816Z,6.87
2023-01-10T18:14:55.620Z,9.50
2023-01-10T18:17:23.348Z,7.13
2023-01-10T18:19:51.206Z,11.73
2023-01-10T18:22:37.672Z,5.57
2023-01-10T18:25:07.840Z,4.67
2023-01-10T18:27:36.236Z,5.13
2023-01-10T18:30:04.543Z,9.60
2023-01-10T18:32:33.275Z,7.93
2023-01-10T18:35:01.195Z,14.07
2023-01-10T18:37:29.007Z,9.40
2023-01-10T18:39:56.900Z,4.80
2023-01-10T18:42:26.017Z,7.37
2023-01-10T18:44:54.005Z,5.73
2023-01-10T18:47:21.833Z,8.40
2023-01-10T18:49:49.756Z,9.03
2023-01-10T18:52:17.734Z,6.10
2023-01-10T18:54:45.494Z,3.63
2023-01-10T18:57:13.274Z,6.10
2023-01-10T18:59:42.583Z,2.37
2023-01-10T19:02:11.865Z,6.43
2023-01-10T19:04:39.706Z,3.40
2023-01-10T19:07:07.691Z,2.47
2023-01-10T19:09:35.516Z,5.00
2023-01-10T19:12:04.139Z,2.87
2023-01-10T19:14:32.016Z,3.03
2023-01-10T19:17:01.129Z,7.33
2023-01-10T19:19:28.722Z,5.00
2023-01-10T19:21:58.958Z,7.57
2023-01-10T19:24:28.807Z,5.17
2023-01-10T19:26:56.520Z,1.90
2023-01-10T19:29:24.541Z,5.23
2023-01-10T19:31:53.110Z,5.40
2023-01-10T19:34:32.777Z,4.07
2023-01-10T19:37:00.554Z,3.67
2023-01-10T19:39:28.361Z,5.87
2023-01-10T19:41:58.570Z,4.33
2023-01-10T19:44:26.384Z,2.40
2023-01-10T19:46:54.287Z,3.70
2023-01-10T19:49:23.994Z,2.60
2023-01-10T19:51:53.620Z,2.27
2023-01-10T19:54:21.423Z,4.90
2023-01-10T19:56:49.129Z,3.70
2023-01-10T20:01:52.912Z,4.40
2023-01-10T20:04:20.847Z,6.10
2023-01-10T20:06:50.010Z,5.90
2023-01-10T20:09:17.628Z,2.57
2023-01-10T20:11:46.623Z,3.70
2023-01-10T20:14:15.311Z,2.87
2023-01-10T20:16:43.244Z,5.30
2023-01-10T20:19:12.147Z,2.73
2023-01-10T20:21:40.304Z,2.23
2023-01-10T20:24:13.730Z,2.97
2023-01-10T20:26:41.433Z,1.83
2023-01-10T20:29:09.287Z,2.40
2023-01-10T20:31:37.349Z,3.07
2023-01-10T20:34:05.091Z,1.83
2023-01-10T20:36:32.779Z,3.37
2023-01-10T20:39:00.443Z,2.97
2023-01-10T20:41:30.098Z,4.43
2023-01-10T20:43:58.539Z,2.63
2023-01-10T20:46:27.095Z,3.67
2023-01-10T20:48:55.270Z,1.93
2023-01-10T20:51:23.723Z,1.57
2023-01-10T20:53:52.682Z,4.57
2023-01-10T20:56:22.216Z,1.90
2023-01-10T20:58:51.247Z,3.90
2023-01-10T21:01:33.176Z,2.00
2023-01-10T21:04:01.789Z,3.73
2023-01-10T21:06:29.766Z,1.77
2023-01-10T21:08:57.636Z,2.47
2023-01-10T21:11:25.323Z,3.03
2023-01-10T21:13:54.210Z,1.70
2023-01-10T21:16:22.446Z,1.97
2023-01-10T21:18:50.568Z,2.63
2023-01-10T21:21:19.213Z,3.80
2023-01-10T21:23:46.980Z,1.70
2023-01-10T21:26:15.294Z,1.80
2023-01-10T21:28:46.408Z,1.37
2023-01-10T21:31:16.206Z,2.20
2023-01-10T21:33:44.148Z,2.53
2023-01-10T21:36:13.462Z,2.20
2023-01-10T21:38:41.454Z,2.27
2023-01-10T21:41:10.041Z,1.20
2023-01-10T21:43:38.656Z,2.13
2023-01-10T21:46:06.799Z,1.30
2023-01-10T21:48:35.889Z,1.57
2023-01-10T21:51:03.896Z,2.30
2023-01-10T21:53:31.805Z,2.00
2023-01-10T21:55:59.943Z,1.60
2023-01-10T21:58:27.630Z,1.43
2023-01-10T22:00:57.227Z,1.03
2023-01-10T22:03:24.928Z,0.87
2023-01-10T22:05:54.049Z,1.20
2023-01-10T22:08:21.675Z,1.77
2023-01-10T22:10:49.800Z,1.90
2023-01-10T22:13:18.594Z,1.17
2023-01-10T22:15:46.216Z,2.20
2023-01-10T22:18:13.790Z,1.87
2023-01-10T22:20:44.794Z,1.10
2023-01-10T22:23:13.813Z,1.13
2023-01-10T22:25:41.354Z,1.27
2023-01-10T22:28:08.946Z,1.07
2023-01-10T22:30:36.506Z,1.77
2023-01-10T22:33:04.275Z,1.23
2023-01-10T22:35:32.079Z,1.60
2023-01-10T22:37:59.686Z,1.87
2023-01-10T22:40:28.594Z,0.90
2023-01-10T22:42:56.306Z,1.23
2023-01-10T22:45:23.850Z,1.33
2023-01-10T22:47:51.468Z,2.03
2023-01-10T22:50:19.228Z,0.90
2023-01-10T22:52:48.981Z,0.80
2023-01-10T22:55:16.960Z,1.03
2023-01-10T22:57:47.730Z,0.87
2023-01-10T23:00:15.996Z,0.70
2023-01-10T23:02:43.661Z,0.90
2023-01-10T23:05:11.478Z,0.70
2023-01-10T23:07:39.020Z,4.07
2023-01-10T23:10:20.479Z,0.60
2023-01-10T23:12:56.202Z,1.07
2023-01-10T23:15:23.811Z,1.03
2023-01-10T23:17:51.342Z,1.60
2023-01-10T23:20:19.183Z,2.50
2023-01-10T23:22:46.765Z,0.83
2023-01-10T23:25:14.329Z,0.70
2023-01-10T23:27:41.925Z,0.50
2023-01-10T23:30:12.280Z,0.70
2023-01-10T23:32:39.871Z,0.33
2023-01-10T23:35:08.062Z,0.60
2023-01-10T23:37:35.647Z,0.60
2023-01-10T23:40:03.775Z,1.30
2023-01-10T23:42:31.350Z,0.60
2023-01-10T23:44:59.240Z,0.50
2023-01-10T23:47:28.137Z,0.70
2023-01-10T23:49:55.764Z,0.60
2023-01-10T23:52:23.331Z,0.50
2023-01-10T23:54:50.970Z,0.50
2023-01-10T23:57:18.641Z,0.50
2023-01-10T23:59:46.215Z,0.50
